Report METAR

 

LIMJ -
Dati ricevuti: 21/05/2022 08:50
Few Clouds
Few Clouds
 Vento da ESE
Vento: ESE 17 km/h
Temperatura: 21°C
P.to Rugiada: 17°C
Umidità: 78%
Barometro: 1021 hPa
Nuvole: Few Clouds
Visibility: 10 km
Cloud details: Few Clouds 610 m
2022/05/21 06:50 LIMJ 210650Z 12009KT 9999 FEW020 21/17 Q1021